createdAt,value
2019-04-29T00:00:33.088Z,96225.65
2019-04-29T00:03:20.424Z,96226.37
2019-04-29T00:06:08.157Z,96224.77
2019-04-29T00:08:55.838Z,96228.98
2019-04-29T00:11:43.328Z,96219.78
2019-04-29T00:14:30.943Z,96219.30
2019-04-29T00:17:25.574Z,96217.45
2019-04-29T00:20:25.522Z,96214.98
2019-04-29T00:23:13.184Z,96215.80
2019-04-29T00:26:00.851Z,96220.44
2019-04-29T00:28:50.510Z,96219.02
2019-04-29T00:31:37.809Z,96216.59
2019-04-29T00:34:25.360Z,96219.23
2019-04-29T00:37:31.957Z,96214.38
2019-04-29T00:40:36.898Z,96216.25
2019-04-29T00:43:48.935Z,96217.26
2019-04-29T00:46:36.619Z,96214.98
2019-04-29T00:49:24.297Z,96213.74
2019-04-29T00:52:11.727Z,96216.14
2019-04-29T00:55:05.456Z,96215.61
2019-04-29T00:57:52.874Z,96223.31
2019-04-29T01:00:41.970Z,96219.05
2019-04-29T01:03:29.666Z,96221.17
2019-04-29T01:06:17.062Z,96215.63
2019-04-29T01:09:08.550Z,96215.95
2019-04-29T01:11:55.961Z,96214.84
2019-04-29T01:14:43.425Z,96218.09
2019-04-29T01:17:31.261Z,96208.92
2019-04-29T01:20:18.749Z,96208.00
2019-04-29T01:23:06.274Z,96201.09
2019-04-29T01:25:58.014Z,96203.33
2019-04-29T01:28:49.778Z,96205.19
2019-04-29T01:31:37.100Z,96205.42
2019-04-29T01:34:29.355Z,96205.98
2019-04-29T01:37:17.061Z,96205.46
2019-04-29T01:40:14.039Z,96203.89
2019-04-29T01:43:01.445Z,96206.28
2019-04-29T01:45:48.729Z,96212.30
2019-04-29T01:48:36.597Z,96213.64
2019-04-29T01:51:23.756Z,96213.45
2019-04-29T01:54:11.228Z,96216.14
2019-04-29T01:56:58.724Z,96211.10
2019-04-29T01:59:46.270Z,96217.78
2019-04-29T02:02:34.199Z,96210.53
2019-04-29T02:05:21.332Z,96220.77
2019-04-29T02:08:09.069Z,96217.23
2019-04-29T02:10:56.798Z,96216.07
2019-04-29T02:13:44.420Z,96215.17
2019-04-29T02:16:31.941Z,96208.70
2019-04-29T02:19:19.629Z,96209.94
2019-04-29T02:22:10.851Z,96206.84
2019-04-29T02:25:06.517Z,96212.70
2019-04-29T02:27:54.028Z,96205.08
2019-04-29T02:30:46.346Z,96201.34
2019-04-29T02:33:34.349Z,96206.72
2019-04-29T02:36:21.879Z,96200.85
2019-04-29T02:39:28.061Z,96203.89
2019-04-29T02:42:33.658Z,96202.63
2019-04-29T02:45:25.640Z,96201.72
2019-04-29T02:48:12.869Z,96202.73
2019-04-29T02:51:00.663Z,96205.61
2019-04-29T02:53:48.351Z,96201.98
2019-04-29T02:56:36.433Z,96202.66
2019-04-29T02:59:29.421Z,96202.47
2019-04-29T03:02:48.474Z,96208.45
2019-04-29T03:05:41.571Z,96201.39
2019-04-29T03:08:29.321Z,96204.86
2019-04-29T03:11:16.905Z,96206.77
2019-04-29T03:14:04.372Z,96199.70
2019-04-29T03:16:52.487Z,96204.78
2019-04-29T03:19:59.479Z,96204.19
2019-04-29T03:22:47.075Z,96207.81
2019-04-29T03:25:34.393Z,96203.37
2019-04-29T03:28:21.762Z,96206.54
2019-04-29T03:31:09.135Z,96203.59
2019-04-29T03:33:56.590Z,96206.21
2019-04-29T03:36:44.021Z,96208.41
2019-04-29T03:39:31.483Z,96215.09
2019-04-29T03:42:19.020Z,96203.33
2019-04-29T03:45:06.625Z,96204.83
2019-04-29T03:47:54.246Z,96207.96
2019-04-29T03:50:41.889Z,96207.10
2019-04-29T03:53:29.781Z,96201.72
2019-04-29T03:56:17.354Z,96198.92
2019-04-29T03:59:04.749Z,96196.91
2019-04-29T04:02:07.461Z,96200.27
2019-04-29T04:05:12.303Z,96202.55
2019-04-29T04:08:21.927Z,96204.23
2019-04-29T04:11:09.555Z,96211.69
2019-04-29T04:13:57.011Z,96214.24
2019-04-29T04:17:20.004Z,96217.30
2019-04-29T04:20:04.547Z,96221.45
2019-04-29T04:22:51.922Z,96221.82
2019-04-29T04:25:38.955Z,96228.55
2019-04-29T04:28:26.597Z,96234.33
2019-04-29T04:31:14.062Z,96238.88
2019-04-29T04:34:01.786Z,96232.84
2019-04-29T04:36:49.141Z,96233.77
2019-04-29T04:39:38.151Z,96231.48
2019-04-29T04:42:29.567Z,96230.94
2019-04-29T04:45:15.394Z,96231.23
2019-04-29T04:48:02.414Z,96233.20
2019-04-29T04:50:49.866Z,96236.20
2019-04-29T04:53:37.068Z,96243.59
2019-04-29T04:56:24.823Z,96249.70
2019-04-29T04:59:11.961Z,96252.36
2019-04-29T05:01:59.146Z,96254.72
2019-04-29T05:04:46.631Z,96256.63
2019-04-29T05:07:34.688Z,96258.75
2019-04-29T05:10:22.332Z,96253.30
2019-04-29T05:13:10.062Z,96261.64
2019-04-29T05:15:57.831Z,96254.31
2019-04-29T05:18:45.512Z,96259.17
2019-04-29T05:21:33.032Z,96267.70
2019-04-29T05:24:20.547Z,96257.05
2019-04-29T05:27:08.656Z,96271.84
2019-04-29T05:29:56.437Z,96273.97
2019-04-29T05:32:43.850Z,96269.11
2019-04-29T05:35:40.060Z,96276.81
2019-04-29T05:38:58.279Z,96269.38
2019-04-29T05:41:45.533Z,96283.57
2019-04-29T05:44:58.563Z,96273.04
2019-04-29T05:47:52.297Z,96270.12
2019-04-29T05:50:53.246Z,96274.06
2019-04-29T05:53:47.736Z,96274.58
2019-04-29T05:56:35.608Z,96284.99
2019-04-29T05:59:23.019Z,96287.16
2019-04-29T06:02:10.932Z,96284.46
2019-04-29T06:04:58.070Z,96281.72
2019-04-29T06:07:46.528Z,96279.98
2019-04-29T06:10:33.761Z,96279.28
2019-04-29T06:13:21.610Z,96283.88
2019-04-29T06:16:09.008Z,96276.75
2019-04-29T06:19:00.361Z,96282.05
2019-04-29T06:21:45.823Z,96285.67
2019-04-29T06:24:36.886Z,96286.11
2019-04-29T06:27:22.575Z,96288.64
2019-04-29T06:30:10.016Z,96290.53
2019-04-29T06:32:57.345Z,96288.42
2019-04-29T06:35:47.368Z,96302.64
2019-04-29T06:38:34.248Z,96301.64
2019-04-29T06:41:22.074Z,96303.26
2019-04-29T06:44:15.904Z,96309.29
2019-04-29T06:46:58.773Z,96311.20
2019-04-29T06:49:47.484Z,96313.89
2019-04-29T06:52:35.153Z,96316.78
2019-04-29T06:55:22.556Z,96314.30
2019-04-29T06:58:10.129Z,96318.34
2019-04-29T07:01:01.154Z,96320.14
2019-04-29T07:03:47.207Z,96325.38
2019-04-29T07:06:35.174Z,96322.42
2019-04-29T07:09:23.189Z,96324.22
2019-04-29T07:12:12.592Z,96321.75
2019-04-29T07:15:00.128Z,96321.44
2019-04-29T07:17:47.420Z,96327.33
2019-04-29T07:20:37.228Z,96319.14
2019-04-29T07:23:24.376Z,96326.30
2019-04-29T07:26:12.004Z,96330.98
2019-04-29T07:28:59.654Z,96327.96
2019-04-29T07:31:47.790Z,96327.71
2019-04-29T07:34:39.352Z,96329.47
2019-04-29T07:37:25.190Z,96335.44
2019-04-29T07:40:13.500Z,96332.16
2019-04-29T07:43:02.828Z,96346.63
2019-04-29T07:45:58.796Z,96345.84
2019-04-29T07:48:45.514Z,96348.63
2019-04-29T07:51:34.826Z,96345.19
2019-04-29T07:54:21.685Z,96343.92
2019-04-29T07:57:12.447Z,96348.52
2019-04-29T07:59:59.196Z,96344.61
2019-04-29T08:02:47.274Z,96340.98
2019-04-29T08:05:35.091Z,96347.10
2019-04-29T08:08:22.909Z,96349.35
2019-04-29T08:11:10.401Z,96345.35
2019-04-29T08:14:00.068Z,96346.47
2019-04-29T08:16:47.484Z,96348.48
2019-04-29T08:19:34.898Z,96349.75
2019-04-29T08:22:22.854Z,96345.41
2019-04-29T08:25:11.871Z,96345.47
2019-04-29T08:27:59.401Z,96348.97
2019-04-29T08:30:47.368Z,96347.58
2019-04-29T08:33:34.673Z,96356.06
2019-04-29T08:36:22.196Z,96357.45
2019-04-29T08:39:10.297Z,96347.91
2019-04-29T08:41:58.861Z,96350.37
2019-04-29T08:45:09.499Z,96351.11
2019-04-29T08:47:57.208Z,96346.56
2019-04-29T08:50:44.415Z,96346.69
2019-04-29T08:53:31.849Z,96349.22
2019-04-29T08:56:19.496Z,96352.78
2019-04-29T08:59:07.113Z,96348.58
2019-04-29T09:01:54.438Z,96345.59
2019-04-29T09:04:53.298Z,96348.84
2019-04-29T09:07:31.352Z,96347.67
2019-04-29T09:10:19.286Z,96343.41
2019-04-29T09:13:07.602Z,96348.94
2019-04-29T09:15:55.097Z,96345.66
2019-04-29T09:18:42.717Z,96339.62
2019-04-29T09:21:30.412Z,96340.78
2019-04-29T09:24:18.125Z,96336.53
2019-04-29T09:27:11.258Z,96334.58
2019-04-29T09:30:00.505Z,96331.52
2019-04-29T09:32:48.524Z,96326.30
2019-04-29T09:35:38.634Z,96321.52
2019-04-29T09:38:24.837Z,96325.42
2019-04-29T09:41:30.594Z,96323.30
2019-04-29T09:44:40.335Z,96325.37
2019-04-29T09:47:27.793Z,96322.58
2019-04-29T09:50:15.583Z,96317.86
2019-04-29T09:53:02.725Z,96323.62
2019-04-29T09:55:50.279Z,96322.09
2019-04-29T09:58:37.702Z,96320.45
2019-04-29T10:01:33.185Z,96323.38
2019-04-29T10:04:36.358Z,96320.61
2019-04-29T10:07:23.731Z,96322.75
2019-04-29T10:10:11.428Z,96324.80
2019-04-29T10:12:58.944Z,96325.84
2019-04-29T10:16:08.989Z,96322.98
2019-04-29T10:19:14.324Z,96319.16
2019-04-29T10:22:01.654Z,96317.96
2019-04-29T10:24:48.687Z,96314.70
2019-04-29T10:27:36.042Z,96308.91
2019-04-29T10:30:26.809Z,96309.39
2019-04-29T10:33:17.534Z,96310.80
2019-04-29T10:36:04.402Z,96307.12
2019-04-29T10:38:53.529Z,96303.20
2019-04-29T10:41:42.843Z,96299.75
2019-04-29T10:44:49.351Z,96297.39
2019-04-29T10:47:53.564Z,96294.22
2019-04-29T10:50:41.959Z,96288.98
2019-04-29T10:53:29.698Z,96288.92
2019-04-29T10:56:17.270Z,96288.50
2019-04-29T10:59:09.154Z,96284.27
2019-04-29T11:02:35.061Z,96288.67
2019-04-29T11:05:28.254Z,96288.47
2019-04-29T11:08:22.744Z,96279.52
2019-04-29T11:11:22.151Z,96280.73
2019-04-29T11:14:01.662Z,96276.55
2019-04-29T11:16:49.735Z,96270.84
2019-04-29T11:19:39.828Z,96273.28
2019-04-29T11:22:33.967Z,96258.87
2019-04-29T11:25:40.571Z,96265.63
2019-04-29T11:28:28.949Z,96267.94
2019-04-29T11:31:19.043Z,96264.53
2019-04-29T11:34:15.967Z,96260.93
2019-04-29T11:37:04.214Z,96259.42
2019-04-29T11:39:52.154Z,96253.60
2019-04-29T11:42:41.735Z,96249.77
2019-04-29T11:45:28.822Z,96242.73
2019-04-29T11:48:16.479Z,96240.22
2019-04-29T11:51:14.182Z,96235.68
2019-04-29T11:54:01.796Z,96232.70
2019-04-29T11:56:49.825Z,96223.42
2019-04-29T11:59:56.177Z,96224.88
2019-04-29T12:02:53.285Z,96218.41
2019-04-29T12:05:44.965Z,96224.03
2019-04-29T12:08:31.809Z,96222.97
2019-04-29T12:11:19.813Z,96222.18
2019-04-29T12:14:13.341Z,96222.05
2019-04-29T12:17:22.924Z,96216.84
2019-04-29T12:20:18.522Z,96208.68
2019-04-29T12:23:05.991Z,96206.42
2019-04-29T12:25:53.807Z,96203.36
2019-04-29T12:28:42.695Z,96205.06
2019-04-29T12:31:51.121Z,96211.89
2019-04-29T12:34:52.675Z,96214.24
2019-04-29T12:38:00.624Z,96217.06
2019-04-29T12:41:20.696Z,96213.46
2019-04-29T12:44:19.691Z,96217.33
2019-04-29T12:47:26.359Z,96211.19
2019-04-29T12:50:05.933Z,96219.66
2019-04-29T12:52:53.638Z,96219.41
2019-04-29T12:55:46.107Z,96218.55
2019-04-29T12:58:32.273Z,96215.90
2019-04-29T13:01:50.825Z,96212.55
2019-04-29T13:04:45.142Z,96202.76
2019-04-29T13:07:36.038Z,96201.03
2019-04-29T13:10:29.569Z,96200.74
2019-04-29T13:13:20.327Z,96196.53
2019-04-29T13:16:28.815Z,96197.40
2019-04-29T13:19:41.398Z,96197.70
2019-04-29T13:22:28.974Z,96202.08
2019-04-29T13:25:19.659Z,96195.93
2019-04-29T13:28:06.028Z,96197.17
2019-04-29T13:30:56.931Z,96197.27
2019-04-29T13:33:45.974Z,96195.23
2019-04-29T13:36:32.691Z,96197.04
2019-04-29T13:39:37.898Z,96194.77
2019-04-29T13:42:14.861Z,96190.02
2019-04-29T13:45:09.468Z,96187.94
2019-04-29T13:48:15.951Z,96187.30
2019-04-29T13:51:34.480Z,96184.08
2019-04-29T13:54:06.580Z,96186.26
2019-04-29T13:56:56.682Z,96191.47
2019-04-29T13:59:54.653Z,96180.73
2019-04-29T14:02:58.395Z,96182.14
2019-04-29T14:05:38.023Z,96178.82
2019-04-29T14:08:28.720Z,96183.75
2019-04-29T14:11:15.062Z,96185.75
2019-04-29T14:14:02.693Z,96180.81
2019-04-29T14:16:50.097Z,96180.09
2019-04-29T14:19:42.499Z,96178.98
2019-04-29T14:22:26.885Z,96180.03
2019-04-29T14:25:14.849Z,96176.24
2019-04-29T14:28:02.471Z,96183.44
2019-04-29T14:30:49.498Z,96176.75
2019-04-29T14:33:41.819Z,96183.30
2019-04-29T14:36:29.063Z,96183.00
2019-04-29T14:39:18.889Z,96186.20
2019-04-29T14:42:12.658Z,96186.56
2019-04-29T14:45:19.301Z,96182.84
2019-04-29T14:48:41.266Z,96188.94
2019-04-29T14:51:16.966Z,96183.17
2019-04-29T14:54:05.704Z,96192.67
2019-04-29T14:56:53.775Z,96198.57
2019-04-29T14:59:41.651Z,96197.36
2019-04-29T15:02:29.973Z,96197.09
2019-04-29T15:05:17.324Z,96200.14
2019-04-29T15:08:04.836Z,96199.14
2019-04-29T15:10:53.940Z,96201.64
2019-04-29T15:13:43.189Z,96201.27
2019-04-29T15:16:36.336Z,96199.75
2019-04-29T15:19:43.802Z,96196.11
2019-04-29T15:22:33.892Z,96198.00
2019-04-29T15:25:22.590Z,96188.90
2019-04-29T15:28:10.019Z,96190.20
2019-04-29T15:30:57.730Z,96197.67
2019-04-29T15:33:45.134Z,96202.32
2019-04-29T15:36:34.922Z,96198.80
2019-04-29T15:39:24.531Z,96197.67
2019-04-29T15:42:10.295Z,96199.75
2019-04-29T15:44:57.719Z,96194.66
2019-04-29T15:47:46.983Z,96199.22
2019-04-29T15:50:37.132Z,96196.59
2019-04-29T15:53:23.770Z,96197.02
2019-04-29T15:56:27.820Z,96200.74
2019-04-29T15:59:08.003Z,96207.61
2019-04-29T16:01:50.203Z,96208.30
2019-04-29T16:04:42.286Z,96210.91
2019-04-29T16:07:38.503Z,96207.66
2019-04-29T16:10:57.843Z,96207.89
2019-04-29T16:13:47.957Z,96211.08
2019-04-29T16:16:33.681Z,96207.17
2019-04-29T16:19:21.375Z,96199.11
2019-04-29T16:22:13.103Z,96199.59
2019-04-29T16:24:59.609Z,96201.03
2019-04-29T16:27:53.005Z,96195.30
2019-04-29T16:30:36.536Z,96200.56
2019-04-29T16:33:24.122Z,96193.31
2019-04-29T16:36:11.960Z,96194.81
2019-04-29T16:38:59.603Z,96193.24
2019-04-29T16:42:05.133Z,96189.42
2019-04-29T16:44:52.581Z,96189.70
2019-04-29T16:47:47.521Z,96189.07
2019-04-29T16:50:30.136Z,96188.64
2019-04-29T16:53:17.905Z,96189.42
2019-04-29T16:56:05.368Z,96192.61
2019-04-29T16:58:53.072Z,96193.22
2019-04-29T17:01:40.680Z,96191.10
2019-04-29T17:04:27.962Z,96195.66
2019-04-29T17:07:16.878Z,96196.58
2019-04-29T17:10:17.473Z,96193.33
2019-04-29T17:13:09.084Z,96192.22
2019-04-29T17:15:54.164Z,96194.19
2019-04-29T17:18:41.691Z,96194.56
2019-04-29T17:21:29.583Z,96195.61
2019-04-29T17:24:16.734Z,96192.15
2019-04-29T17:27:16.728Z,96197.16
2019-04-29T17:30:27.449Z,96205.78
2019-04-29T17:33:28.337Z,96204.19
2019-04-29T17:36:11.425Z,96199.39
2019-04-29T17:38:59.080Z,96198.22
2019-04-29T17:41:46.875Z,96199.20
2019-04-29T17:44:52.253Z,96202.12
2019-04-29T17:47:52.970Z,96199.45
2019-04-29T17:50:48.161Z,96202.36
2019-04-29T17:53:40.675Z,96193.75
2019-04-29T17:56:40.992Z,96189.20
2019-04-29T18:00:00.539Z,96198.67
2019-04-29T18:03:10.232Z,96199.85
2019-04-29T18:06:10.873Z,96206.91
2019-04-29T18:09:29.675Z,96211.88
2019-04-29T18:12:21.220Z,96204.10
2019-04-29T18:15:14.973Z,96209.66
2019-04-29T18:18:07.126Z,96216.91
2019-04-29T18:21:08.012Z,96210.80
2019-04-29T18:24:09.384Z,96212.41
2019-04-29T18:27:02.403Z,96214.30
2019-04-29T18:29:50.330Z,96214.47
2019-04-29T18:32:42.309Z,96215.36
2019-04-29T18:35:27.166Z,96216.22
2019-04-29T18:38:15.704Z,96217.00
2019-04-29T18:41:03.111Z,96219.03
2019-04-29T18:43:50.730Z,96224.27
2019-04-29T18:46:38.430Z,96226.44
2019-04-29T18:49:26.113Z,96229.75
2019-04-29T18:52:23.847Z,96232.88
2019-04-29T18:55:02.832Z,96231.95
2019-04-29T18:57:50.224Z,96234.48
2019-04-29T19:00:38.020Z,96236.12
2019-04-29T19:03:42.876Z,96237.35
2019-04-29T19:06:30.710Z,96238.41
2019-04-29T19:09:20.804Z,96243.75
2019-04-29T19:12:08.151Z,96249.51
2019-04-29T19:14:59.738Z,96246.30
2019-04-29T19:17:58.713Z,96250.46
2019-04-29T19:20:37.808Z,96247.50
2019-04-29T19:23:29.488Z,96247.55
2019-04-29T19:26:18.135Z,96249.51
2019-04-29T19:29:06.181Z,96253.21
2019-04-29T19:31:54.987Z,96252.16
2019-04-29T19:34:43.546Z,96251.81
2019-04-29T19:37:32.373Z,96254.02
2019-04-29T19:40:20.368Z,96258.31
2019-04-29T19:43:10.209Z,96257.56
2019-04-29T19:45:57.477Z,96257.01
2019-04-29T19:48:45.186Z,96260.27
2019-04-29T19:51:32.848Z,96261.73
2019-04-29T19:54:24.488Z,96261.39
2019-04-29T19:57:09.782Z,96260.05
2019-04-29T19:59:57.450Z,96260.12
2019-04-29T20:02:48.292Z,96257.23
2019-04-29T20:05:42.934Z,96263.52
2019-04-29T20:08:49.799Z,96258.70
2019-04-29T20:11:31.645Z,96264.23
2019-04-29T20:14:19.399Z,96258.55
2019-04-29T20:17:30.473Z,96260.42
2019-04-29T20:20:36.911Z,96263.41
2019-04-29T20:23:24.857Z,96254.05
2019-04-29T20:26:15.451Z,96256.25
2019-04-29T20:28:58.374Z,96250.25
2019-04-29T20:31:51.474Z,96252.02
2019-04-29T20:34:36.168Z,96247.39
2019-04-29T20:37:23.807Z,96253.90
2019-04-29T20:40:11.556Z,96243.75
2019-04-29T20:42:59.401Z,96244.69
2019-04-29T20:45:46.687Z,96240.45
2019-04-29T20:48:36.752Z,96239.79
2019-04-29T20:51:28.498Z,96236.91
2019-04-29T20:54:19.386Z,96238.59
2019-04-29T20:57:17.335Z,96239.09
2019-04-29T20:59:55.593Z,96234.20
2019-04-29T21:02:42.805Z,96234.61
2019-04-29T21:05:31.033Z,96235.52
2019-04-29T21:08:19.335Z,96235.58
2019-04-29T21:11:14.274Z,96232.50
2019-04-29T21:14:20.669Z,96231.81
2019-04-29T21:17:10.963Z,96231.53
2019-04-29T21:19:57.350Z,96235.02
2019-04-29T21:22:45.561Z,96235.73
2019-04-29T21:25:35.398Z,96240.32
2019-04-29T21:28:23.382Z,96229.23
2019-04-29T21:31:16.577Z,96234.42
2019-04-29T21:34:01.236Z,96233.41
2019-04-29T21:37:06.565Z,96227.89
2019-04-29T21:40:08.858Z,96233.54
2019-04-29T21:42:59.052Z,96230.84
2019-04-29T21:45:48.356Z,96233.09
2019-04-29T21:48:37.329Z,96226.63
2019-04-29T21:51:25.565Z,96231.44
2019-04-29T21:54:14.195Z,96220.37
2019-04-29T21:57:02.456Z,96236.33
2019-04-29T21:59:49.568Z,96227.30
2019-04-29T22:02:36.736Z,96230.30
2019-04-29T22:05:25.119Z,96233.25
2019-04-29T22:08:16.152Z,96230.83
2019-04-29T22:11:04.774Z,96227.75
2019-04-29T22:13:51.015Z,96222.33
2019-04-29T22:16:38.441Z,96226.50
2019-04-29T22:19:28.048Z,96222.54
2019-04-29T22:22:15.403Z,96223.30
2019-04-29T22:25:05.755Z,96221.09
2019-04-29T22:27:55.266Z,96213.63
2019-04-29T22:30:42.595Z,96212.37
2019-04-29T22:33:34.834Z,96222.00
2019-04-29T22:36:20.626Z,96220.25
2019-04-29T22:39:08.286Z,96216.64
2019-04-29T22:42:14.058Z,96216.16
2019-04-29T22:45:01.580Z,96216.04
2019-04-29T22:47:49.107Z,96205.23
2019-04-29T22:50:38.231Z,96203.45
2019-04-29T22:53:25.645Z,96206.05
2019-04-29T22:56:14.131Z,96201.70
2019-04-29T22:59:02.596Z,96204.04
2019-04-29T23:01:50.752Z,96205.66
2019-04-29T23:04:38.145Z,96197.77
2019-04-29T23:07:25.942Z,96191.52
2019-04-29T23:10:19.878Z,96187.77
2019-04-29T23:13:02.854Z,96190.59
2019-04-29T23:15:53.813Z,96191.10
2019-04-29T23:18:42.023Z,96181.16
2019-04-29T23:21:47.305Z,96185.02
2019-04-29T23:24:57.009Z,96184.77
2019-04-29T23:27:48.486Z,96187.28
2019-04-29T23:30:33.846Z,96180.77
2019-04-29T23:33:23.924Z,96180.30
2019-04-29T23:36:14.107Z,96178.45
2019-04-29T23:38:59.987Z,96180.43
2019-04-29T23:41:47.458Z,96175.28
2019-04-29T23:44:37.834Z,96172.89
2019-04-29T23:47:25.768Z,96175.37
2019-04-29T23:50:18.161Z,96168.09
2019-04-29T23:53:02.787Z,96171.14
2019-04-29T23:55:50.271Z,96165.17
2019-04-29T23:58:54.981Z,96164.17
